Time;durP1;ratioP1;P1;durP2;ratioP2;P2;SDS_P1;SDS_P2;PMS_P1;PMS_P2;Temp;Humidity;BMP_temperature;BMP_pressure;BME280_temperature;BME280_humidity;BME280_pressure;Samples;Min_cycle;Max_cycle;Signal;HPM_P1;HPM_P2
2024/03/09 00:00:24;;;;;;;15.97;7.57;;;;;;;4.52;73.67;100916.00;5075415;28;20445;-71
2024/03/09 00:02:52;;;;;;;14.67;5.87;;;;;;;4.45;74.31;100907.31;5075960;28;20506;-71
2024/03/09 00:05:20;;;;;;;8.93;5.40;;;;;;;4.43;75.43;100909.47;5075560;28;20914;-71
2024/03/09 00:07:47;;;;;;;20.13;4.97;;;;;;;4.45;75.95;100906.53;5075497;28;20442;-71
2024/03/09 00:10:15;;;;;;;7.53;4.03;;;;;;;4.44;76.39;100899.53;5075406;28;20429;-71
2024/03/09 00:12:43;;;;;;;10.97;6.30;;;;;;;4.47;75.92;100894.50;5075302;28;20468;-71
2024/03/09 00:15:12;;;;;;;13.73;6.80;;;;;;;4.50;75.97;100901.22;5075276;28;20425;-71
2024/03/09 00:17:41;;;;;;;11.33;5.47;;;;;;;4.46;75.94;100892.84;5075343;28;20481;-70
2024/03/09 00:20:12;;;;;;;9.60;4.73;;;;;;;4.46;75.89;100892.03;5075444;28;20480;-73
2024/03/09 00:22:39;;;;;;;7.33;3.87;;;;;;;4.43;76.97;100890.69;5075570;28;20476;-73
2024/03/09 00:25:07;;;;;;;10.47;5.30;;;;;;;4.43;76.84;100890.69;5075121;28;20480;-72
2024/03/09 00:27:34;;;;;;;9.10;4.33;;;;;;;4.44;76.78;100892.31;5075509;28;20901;-72
2024/03/09 00:30:02;;;;;;;14.37;6.90;;;;;;;4.43;76.97;100887.19;5074796;28;20528;-71
2024/03/09 00:32:29;;;;;;;12.73;5.80;;;;;;;4.38;77.50;100884.44;5075270;28;20491;-71
2024/03/09 00:34:57;;;;;;;15.70;6.23;;;;;;;4.39;77.67;100886.09;5075138;28;20445;-71
2024/03/09 00:37:24;;;;;;;7.10;4.90;;;;;;;4.41;77.91;100878.59;5075109;28;20930;-72
2024/03/09 00:39:51;;;;;;;7.87;4.50;;;;;;;4.37;77.95;100874.78;5074897;28;20539;-72
2024/03/09 00:42:19;;;;;;;14.80;5.63;;;;;;;4.34;78.27;100869.91;5074435;28;20493;-72
2024/03/09 00:44:46;;;;;;;22.33;7.60;;;;;;;4.30;77.96;100870.44;5075201;28;20446;-72
2024/03/09 00:47:14;;;;;;;15.10;6.50;;;;;;;4.28;76.80;100871.75;5074665;28;20534;-72
2024/03/09 00:49:41;;;;;;;11.57;5.00;;;;;;;4.23;76.64;100861.78;5074951;28;20460;-72
2024/03/09 00:52:10;;;;;;;9.67;5.53;;;;;;;4.17;78.11;100862.78;5074836;28;20828;-72
2024/03/09 00:54:37;;;;;;;10.90;5.03;;;;;;;4.16;78.17;100863.03;5074238;28;20441;-72
2024/03/09 00:57:04;;;;;;;18.00;7.07;;;;;;;4.12;78.00;100860.06;5074799;28;20573;-71
2024/03/09 00:59:31;;;;;;;7.00;4.67;;;;;;;4.10;78.60;100850.63;5074765;28;20465;-71
2024/03/09 01:02:00;;;;;;;12.73;5.27;;;;;;;4.08;78.58;100850.09;5074347;28;20438;-71
2024/03/09 01:04:27;;;;;;;10.67;6.10;;;;;;;4.10;79.03;100845.28;5073213;28;21002;-72
2024/03/09 01:06:54;;;;;;;13.67;6.80;;;;;;;4.04;79.06;100847.91;5074909;28;20433;-72
2024/03/09 01:09:23;;;;;;;12.80;5.00;;;;;;;4.05;78.68;100843.34;5074678;28;20491;-72
2024/03/09 01:11:50;;;;;;;8.33;5.53;;;;;;;4.01;79.11;100842.22;5074353;28;20453;-71
2024/03/09 01:14:17;;;;;;;14.97;6.37;;;;;;;4.02;79.01;100839.28;5074176;28;20540;-71
2024/03/09 01:16:44;;;;;;;17.43;6.03;;;;;;;4.00;79.69;100843.28;5074057;28;20486;-71
2024/03/09 01:19:11;;;;;;;12.27;6.77;;;;;;;3.99;80.87;100831.78;5074074;28;20446;-71
2024/03/09 01:21:39;;;;;;;15.03;7.03;;;;;;;4.02;80.80;100841.97;5073841;28;20476;-71
2024/03/09 01:24:06;;;;;;;14.13;5.77;;;;;;;4.04;80.99;100839.06;5077864;22;20536;-66
2024/03/09 01:26:34;;;;;;;11.83;5.90;;;;;;;4.00;81.25;100830.69;5054355;28;20444;-66
2024/03/09 01:28:59;;;;;;;15.63;6.60;;;;;;;4.02;81.17;100833.94;5054137;28;20540;-66
2024/03/09 01:31:28;;;;;;;7.80;4.33;;;;;;;3.96;81.65;100834.94;5054270;28;20953;-66
2024/03/09 01:33:55;;;;;;;13.10;5.43;;;;;;;3.95;81.65;100832.53;5054167;28;20229;-66
2024/03/09 01:36:22;;;;;;;11.63;5.47;;;;;;;3.91;81.84;100834.09;5053781;28;20518;-66
2024/03/09 01:38:49;;;;;;;11.63;6.27;;;;;;;3.95;82.06;100837.88;5053858;28;20439;-67
2024/03/09 01:41:15;;;;;;;7.43;4.30;;;;;;;3.88;81.96;100834.56;5054029;28;20454;-66
2024/03/09 01:43:43;;;;;;;9.33;5.13;;;;;;;3.92;82.00;100824.97;5053398;28;20469;-66
2024/03/09 01:46:13;;;;;;;14.03;6.67;;;;;;;3.91;81.99;100824.16;5053946;28;20521;-66
2024/03/09 01:48:41;;;;;;;10.90;6.13;;;;;;;3.92;81.96;100827.66;5053747;28;20464;-66
2024/03/09 01:51:10;;;;;;;9.07;7.13;;;;;;;3.84;82.66;100822.72;5053632;28;20525;-66
2024/03/09 01:53:41;;;;;;;14.20;6.00;;;;;;;3.85;82.24;100824.34;5053367;28;20469;-66
2024/03/09 01:56:11;;;;;;;13.27;5.07;;;;;;;3.76;82.40;100824.81;5053460;28;20797;-66
2024/03/09 01:58:41;;;;;;;15.53;7.67;;;;;;;3.74;83.04;100826.91;5053873;28;20427;-66
2024/03/09 02:01:22;;;;;;;6.77;3.93;;;;;;;3.70;82.14;100817.75;5053497;28;20445;-66
2024/03/09 02:03:52;;;;;;;19.43;8.67;;;;;;;3.69;81.47;100812.66;5053572;28;20462;-66
2024/03/09 02:06:21;;;;;;;12.60;6.20;;;;;;;3.60;81.65;100808.81;5053482;28;20445;-66
2024/03/09 02:08:48;;;;;;;12.17;6.20;;;;;;;3.55;82.50;100804.19;5053530;28;20438;-66
2024/03/09 02:11:14;;;;;;;20.73;7.90;;;;;;;3.54;81.65;100811.41;5053397;28;20442;-66
2024/03/09 02:13:43;;;;;;;12.30;6.93;;;;;;;3.50;82.13;100809.47;5053319;28;20466;-66
2024/03/09 02:16:12;;;;;;;12.97;5.60;;;;;;;3.48;83.04;100801.69;5057082;28;20490;-66
2024/03/09 02:18:39;;;;;;;14.30;6.83;;;;;;;3.44;82.95;100797.88;5057562;28;20446;-66
2024/03/09 02:21:08;;;;;;;18.87;7.40;;;;;;;3.44;82.56;100803.22;5057574;28;20888;-66
2024/03/09 02:23:35;;;;;;;8.33;5.10;;;;;;;3.48;83.03;100806.22;5057177;28;20519;-66
2024/03/09 02:26:04;;;;;;;14.80;5.30;;;;;;;3.39;83.79;100794.34;5057634;28;20529;-66
2024/03/09 02:28:30;;;;;;;9.37;7.10;;;;;;;3.42;83.44;100791.97;5057355;28;20434;-66
2024/03/09 02:30:59;;;;;;;8.80;4.63;;;;;;;3.43;82.98;100788.22;5057498;28;20520;-66
2024/03/09 02:33:27;;;;;;;12.37;6.47;;;;;;;3.42;82.48;100785.81;5057165;28;20477;-66
2024/03/09 02:35:54;;;;;;;13.23;4.60;;;;;;;3.43;82.46;100782.06;5057151;28;20469;-66
2024/03/09 02:38:20;;;;;;;7.83;4.80;;;;;;;3.44;83.03;100781.81;5057826;28;20508;-66
2024/03/09 02:40:48;;;;;;;16.57;8.97;;;;;;;3.41;84.65;100782.31;5057125;28;20442;-66
2024/03/09 02:43:18;;;;;;;8.73;4.00;;;;;;;3.41;85.00;100778.81;5057069;28;20465;-66
2024/03/09 02:45:44;;;;;;;13.70;5.47;;;;;;;3.41;85.38;100778.81;5057207;28;20446;-66
2024/03/09 02:48:11;;;;;;;17.83;6.60;;;;;;;3.41;85.68;100768.09;5056945;28;20988;-66
2024/03/09 02:50:38;;;;;;;12.63;4.23;;;;;;;3.36;85.88;100770.72;5056960;28;20520;-66
2024/03/09 02:53:06;;;;;;;17.33;7.50;;;;;;;3.35;85.96;100769.91;5056771;28;20468;-66
2024/03/09 02:55:33;;;;;;;12.27;5.90;;;;;;;3.32;86.00;100774.94;5057194;28;20449;-66
2024/03/09 02:58:00;;;;;;;8.23;5.87;;;;;;;3.34;85.87;100767.50;5056945;28;20993;-66
2024/03/09 03:00:28;;;;;;;15.93;5.50;;;;;;;3.31;86.35;100765.31;5056526;28;20446;-66
2024/03/09 03:05:41;;;;;;;9.70;4.60;;;;;;;3.38;86.36;100765.94;5057458;28;20409;-66
2024/03/09 03:08:08;;;;;;;8.90;5.20;;;;;;;3.34;86.45;100762.94;5057166;28;20488;-66
2024/03/09 03:10:35;;;;;;;9.77;6.13;;;;;;;3.38;86.45;100752.56;5057640;28;20513;-66
2024/03/09 03:13:04;;;;;;;9.70;5.30;;;;;;;3.29;86.79;100758.34;5056564;28;20498;-66
2024/03/09 03:15:32;;;;;;;11.40;5.57;;;;;;;3.29;85.91;100753.00;5056608;28;20511;-66
2024/03/09 03:17:58;;;;;;;19.03;9.30;;;;;;;3.22;85.73;100744.31;5056051;28;20521;-66
2024/03/09 03:20:25;;;;;;;11.47;6.60;;;;;;;3.26;85.86;100750.00;5056465;28;20981;-66
2024/03/09 03:22:52;;;;;;;17.43;7.67;;;;;;;3.26;84.91;100750.78;5056113;28;20560;-66
2024/03/09 03:25:19;;;;;;;11.37;6.50;;;;;;;3.20;85.69;100743.78;5056617;28;20429;-66
2024/03/09 03:27:47;;;;;;;10.93;5.60;;;;;;;3.13;85.28;100739.66;5055371;28;20509;-66
2024/03/09 03:30:15;;;;;;;11.63;5.83;;;;;;;3.17;85.39;100746.13;5055939;28;20442;-66
2024/03/09 03:32:44;;;;;;;9.10;5.17;;;;;;;3.14;86.29;100735.91;5056259;28;20466;-66
2024/03/09 03:35:12;;;;;;;12.73;6.87;;;;;;;3.14;86.39;100733.22;5056434;28;20442;-66
2024/03/09 03:37:41;;;;;;;16.03;8.17;;;;;;;3.12;86.52;100730.81;5056692;28;20577;-66
2024/03/09 03:40:09;;;;;;;11.60;6.07;;;;;;;3.10;86.41;100729.44;5056127;28;20446;-66
2024/03/09 03:42:36;;;;;;;16.50;7.30;;;;;;;3.10;86.45;100732.09;5055990;28;20548;-65
2024/03/09 03:45:03;;;;;;;9.50;4.47;;;;;;;3.09;86.48;100731.31;5055957;28;20449;-65
2024/03/09 03:47:29;;;;;;;18.13;6.90;;;;;;;3.15;86.28;100738.34;5055733;28;20445;-65
2024/03/09 03:49:57;;;;;;;6.77;4.77;;;;;;;3.12;86.64;100730.81;5055756;28;20533;-65
2024/03/09 03:52:24;;;;;;;8.53;4.77;;;;;;;3.11;87.56;100731.88;5055688;28;20464;-65
2024/03/09 03:54:51;;;;;;;17.57;6.33;;;;;;;3.08;88.30;100740.41;5055887;28;20496;-66
2024/03/09 03:57:17;;;;;;;13.37;5.40;;;;;;;3.12;88.20;100732.69;5055671;28;20478;-65
2024/03/09 03:59:44;;;;;;;11.33;5.87;;;;;;;3.11;88.28;100733.75;5055761;28;20468;-65
2024/03/09 04:02:10;;;;;;;12.97;5.93;;;;;;;3.12;88.59;100724.66;5055609;28;20538;-65
2024/03/09 04:04:37;;;;;;;12.03;6.20;;;;;;;3.15;88.50;100734.88;5055961;28;20442;-65
2024/03/09 04:07:05;;;;;;;16.33;6.70;;;;;;;3.08;88.70;100727.00;5055736;28;20439;-65
2024/03/09 04:09:32;;;;;;;10.33;6.60;;;;;;;3.08;88.94;100727.00;5055849;28;20445;-65
2024/03/09 04:12:00;;;;;;;9.83;5.60;;;;;;;3.11;89.08;100726.53;5055562;28;20434;-65
2024/03/09 04:14:27;;;;;;;17.40;7.57;;;;;;;3.08;88.72;100727.00;5055384;28;20508;-66
2024/03/09 04:16:54;;;;;;;18.40;7.63;;;;;;;3.02;89.41;100717.31;5055529;28;20835;-66
2024/03/09 04:19:21;;;;;;;9.73;4.53;;;;;;;3.05;89.47;100719.47;5055643;28;20521;-66
2024/03/09 04:21:47;;;;;;;13.83;4.90;;;;;;;2.97;89.37;100717.25;5055127;28;21018;-66
2024/03/09 04:24:15;;;;;;;18.10;6.60;;;;;;;2.97;89.27;100704.69;5055091;28;20464;-66
2024/03/09 04:26:42;;;;;;;9.63;5.03;;;;;;;2.93;89.18;100702.75;5055411;28;20976;-66
2024/03/09 04:29:10;;;;;;;9.93;5.80;;;;;;;2.91;88.19;100704.84;5055146;28;20800;-66
2024/03/09 04:31:37;;;;;;;23.30;6.67;;;;;;;2.85;87.84;100705.84;5055186;28;20888;-66
2024/03/09 04:34:10;;;;;;;6.60;4.60;;;;;;;2.77;88.04;100699.84;5055088;28;21023;-66
2024/03/09 04:36:37;;;;;;;10.77;5.73;;;;;;;2.82;88.00;100699.09;5055129;28;20871;-66
2024/03/09 04:39:04;;;;;;;9.17;5.50;;;;;;;2.76;87.70;100692.88;5055293;28;20435;-66
2024/03/09 04:41:32;;;;;;;11.77;6.53;;;;;;;2.73;87.21;100693.38;5054564;28;20965;-66
2024/03/09 04:44:00;;;;;;;8.77;5.37;;;;;;;2.72;87.40;100689.09;5054718;28;20458;-66
2024/03/09 04:46:28;;;;;;;11.73;4.57;;;;;;;2.65;87.70;100685.75;5054433;28;20457;-66
2024/03/09 04:48:54;;;;;;;12.93;5.83;;;;;;;2.59;88.39;100692.09;5055224;28;20549;-66
2024/03/09 04:51:22;;;;;;;15.23;8.13;;;;;;;2.59;88.49;100680.59;5054677;28;20525;-66
2024/03/09 04:53:49;;;;;;;12.83;4.10;;;;;;;2.62;88.90;100678.25;5054576;28;20458;-66
2024/03/09 04:56:16;;;;;;;11.47;5.50;;;;;;;2.56;89.16;100673.88;5054735;28;20438;-66
2024/03/09 04:58:44;;;;;;;19.47;7.97;;;;;;;2.55;89.35;100669.59;5054112;28;21011;-66
2024/03/09 05:01:10;;;;;;;10.97;6.63;;;;;;;2.55;90.12;100669.59;5054759;28;20464;-66
2024/03/09 05:03:37;;;;;;;9.87;5.90;;;;;;;2.55;90.84;100666.91;5054022;28;20974;-67
2024/03/09 05:06:05;;;;;;;13.53;8.20;;;;;;;2.58;91.07;100663.75;5054781;28;20453;-67
2024/03/09 05:08:31;;;;;;;7.40;5.30;;;;;;;2.54;91.61;100667.97;5054405;28;20445;-67
2024/03/09 05:10:58;;;;;;;11.40;5.63;;;;;;;2.56;91.51;100671.19;5054306;28;20442;-67
2024/03/09 05:13:24;;;;;;;18.67;7.77;;;;;;;2.57;91.73;100656.78;5054176;28;20541;-67
2024/03/09 05:15:53;;;;;;;17.77;6.87;;;;;;;2.57;91.92;100662.13;5054074;28;20961;-67
2024/03/09 05:18:21;;;;;;;7.43;4.57;;;;;;;2.54;92.00;100654.59;5053781;28;20486;-67
2024/03/09 05:20:48;;;;;;;14.97;8.10;;;;;;;2.56;91.90;100654.34;5053907;28;20442;-67
2024/03/09 05:23:15;;;;;;;11.53;7.00;;;;;;;2.61;91.63;100652.56;5053948;28;20565;-67
2024/03/09 05:25:41;;;;;;;10.57;5.07;;;;;;;2.57;92.22;100651.44;5053694;28;20518;-67
2024/03/09 05:28:12;;;;;;;15.63;6.43;;;;;;;2.59;92.34;100646.66;5054611;28;20457;-67
2024/03/09 05:30:38;;;;;;;10.87;6.67;;;;;;;2.59;92.04;100653.88;5053953;28;20423;-67
2024/03/09 05:33:07;;;;;;;9.00;7.10;;;;;;;2.54;92.57;100651.94;5054443;28;20465;-67
2024/03/09 05:35:35;;;;;;;13.20;4.77;;;;;;;2.55;91.83;100653.53;5053843;28;20434;-67
2024/03/09 05:38:04;;;;;;;14.83;6.87;;;;;;;2.45;91.00;100659.56;5053776;28;20478;-67
2024/03/09 05:40:31;;;;;;;17.87;7.10;;;;;;;2.52;90.43;100656.69;5053413;28;20926;-67
2024/03/09 05:43:01;;;;;;;14.63;7.10;;;;;;;2.49;90.01;100654.53;5053644;28;20871;-67
2024/03/09 05:45:28;;;;;;;14.03;6.60;;;;;;;2.43;90.39;100644.81;5053703;28;20526;-67
2024/03/09 05:47:55;;;;;;;10.30;5.37;;;;;;;2.46;91.08;100647.00;5053896;28;20442;-67
2024/03/09 05:50:28;;;;;;;7.53;5.17;;;;;;;2.49;91.43;100646.50;5053483;28;20480;-66
2024/03/09 05:52:57;;;;;;;11.47;5.50;;;;;;;2.44;91.51;100638.44;5053475;28;20885;-66
2024/03/09 05:55:24;;;;;;;19.03;5.50;;;;;;;2.49;90.93;100643.84;5053499;28;20938;-65
2024/03/09 05:57:52;;;;;;;12.03;6.30;;;;;;;2.52;91.17;100643.31;5053748;28;20569;-66
2024/03/09 06:00:20;;;;;;;11.30;4.73;;;;;;;2.53;91.21;100634.28;5053474;28;20442;-66
2024/03/09 06:02:50;;;;;;;11.40;5.87;;;;;;;2.51;91.40;100634.50;5053378;28;20468;-66
2024/03/09 06:05:16;;;;;;;12.67;5.27;;;;;;;2.55;91.28;100632.16;5053414;28;20532;-67
2024/03/09 06:07:45;;;;;;;10.47;5.40;;;;;;;2.56;91.38;100625.75;5053419;28;20529;-69
2024/03/09 06:10:14;;;;;;;9.67;6.30;;;;;;;2.58;91.95;100629.00;5053395;28;20438;-67
2024/03/09 06:12:41;;;;;;;15.27;7.47;;;;;;;2.56;92.15;100627.59;5053411;28;20863;-67
2024/03/09 06:15:09;;;;;;;10.23;5.77;;;;;;;2.58;92.74;100634.34;5053357;28;20525;-67
2024/03/09 06:17:35;;;;;;;11.33;5.33;;;;;;;2.61;93.30;100633.03;5053594;28;20565;-66
2024/03/09 06:20:02;;;;;;;12.10;6.77;;;;;;;2.68;93.38;100631.78;5053558;28;20434;-66
2024/03/09 06:22:29;;;;;;;16.03;5.67;;;;;;;2.80;92.99;100630.88;5053247;28;20499;-66
2024/03/09 06:24:57;;;;;;;13.13;5.80;;;;;;;2.83;93.03;100622.34;5053268;28;20450;-66
2024/03/09 06:27:23;;;;;;;5.67;3.87;;;;;;;2.89;93.05;100627.53;5053638;28;20811;-67
2024/03/09 06:29:50;;;;;;;9.97;5.47;;;;;;;2.90;92.80;100633.69;5053326;28;20449;-66
2024/03/09 06:32:17;;;;;;;14.63;6.80;;;;;;;2.96;92.68;100622.78;5052958;28;20520;-66
2024/03/09 06:34:43;;;;;;;15.83;6.47;;;;;;;2.99;92.88;100627.63;5053262;28;20450;-66
2024/03/09 06:37:10;;;;;;;9.27;5.50;;;;;;;3.05;92.36;100631.16;5053046;28;20533;-66
2024/03/09 06:39:38;;;;;;;16.43;7.20;;;;;;;3.04;92.10;100624.22;5052675;28;20468;-66
2024/03/09 06:42:09;;;;;;;17.53;6.30;;;;;;;3.06;92.32;100627.47;5053028;28;20467;-66
2024/03/09 06:44:36;;;;;;;10.50;5.70;;;;;;;3.14;91.80;100620.84;5053548;28;20430;-66
2024/03/09 06:47:04;;;;;;;11.17;5.03;;;;;;;3.18;91.79;100621.97;5053488;28;20449;-66
2024/03/09 06:49:31;;;;;;;11.23;6.53;;;;;;;3.18;91.48;100621.97;5053068;28;20922;-66
2024/03/09 06:51:57;;;;;;;14.33;7.53;;;;;;;3.25;90.82;100626.06;5052956;28;20448;-66
2024/03/09 06:54:24;;;;;;;13.10;5.47;;;;;;;3.27;90.88;100621.25;5052998;28;20522;-66
2024/03/09 06:56:51;;;;;;;15.57;6.03;;;;;;;3.26;91.48;100627.69;5053025;28;20437;-66
2024/03/09 06:59:20;;;;;;;11.57;8.40;;;;;;;3.28;91.41;100622.09;5052855;28;20482;-66
2024/03/09 07:01:46;;;;;;;12.03;6.40;;;;;;;3.32;90.89;100620.53;5053455;28;20438;-66
2024/03/09 07:04:15;;;;;;;14.97;7.33;;;;;;;3.31;91.22;100621.56;5056665;28;20441;-66
2024/03/09 07:06:41;;;;;;;16.80;6.00;;;;;;;3.40;90.45;100627.28;5056574;28;20491;-66
2024/03/09 07:09:11;;;;;;;9.27;8.27;;;;;;;3.48;89.75;100624.16;5056960;28;20438;-66
2024/03/09 07:11:38;;;;;;;14.93;7.10;;;;;;;3.56;89.24;100617.53;5056262;28;20975;-67
2024/03/09 07:14:05;;;;;;;14.57;7.37;;;;;;;3.59;88.84;100625.88;5056800;28;20470;-66
2024/03/09 07:16:33;;;;;;;22.43;7.50;;;;;;;3.64;89.66;100620.56;5056856;28;20434;-66
2024/03/09 07:18:59;;;;;;;16.97;6.17;;;;;;;3.72;89.00;100625.47;5056100;28;20572;-66
2024/03/09 07:21:26;;;;;;;14.40;5.87;;;;;;;3.75;88.72;100608.06;5056057;28;20443;-66
2024/03/09 07:23:53;;;;;;;10.60;7.30;;;;;;;3.77;88.73;100614.00;5079947;22;20497;-68
2024/03/09 07:26:20;;;;;;;15.93;8.20;;;;;;;3.82;88.63;100610.53;5076369;28;20449;-68
2024/03/09 07:28:46;;;;;;;9.00;6.67;;;;;;;3.89;89.32;100608.44;5076384;28;20452;-69
2024/03/09 07:31:15;;;;;;;13.70;9.20;;;;;;;3.95;88.81;100604.75;5076472;28;20861;-68
2024/03/09 07:33:43;;;;;;;20.27;9.73;;;;;;;4.01;88.19;100609.06;5076370;28;20556;-69
2024/03/09 07:36:10;;;;;;;14.87;8.27;;;;;;;4.11;88.30;100613.69;5076139;28;20806;-69
2024/03/09 07:38:37;;;;;;;18.63;8.17;;;;;;;4.14;87.99;100611.31;5075668;28;20477;-68
2024/03/09 07:41:07;;;;;;;11.30;7.53;;;;;;;4.17;87.46;100610.81;5075999;28;20528;-69
2024/03/09 07:43:34;;;;;;;18.73;7.20;;;;;;;4.20;87.10;100599.56;5075948;28;20495;-68
2024/03/09 07:46:02;;;;;;;14.10;6.67;;;;;;;4.27;87.25;100610.88;5076043;28;20942;-69
2024/03/09 07:48:29;;;;;;;14.33;6.03;;;;;;;4.38;87.88;100600.19;5075873;28;20804;-69
2024/03/09 07:50:59;;;;;;;13.53;5.90;;;;;;;4.44;87.20;100599.97;5075776;28;20540;-68
2024/03/09 07:53:26;;;;;;;14.17;5.90;;;;;;;4.56;87.22;100597.09;5075383;28;20506;-69
2024/03/09 07:55:54;;;;;;;8.60;5.27;;;;;;;4.65;86.67;100600.06;5075730;28;20513;-67
2024/03/09 07:58:21;;;;;;;22.83;9.07;;;;;;;4.69;85.65;100593.94;5075589;28;20564;-65
2024/03/09 08:00:48;;;;;;;9.40;5.37;;;;;;;4.78;85.56;100595.06;5076017;28;20488;-67
2024/03/09 08:03:17;;;;;;;10.73;5.67;;;;;;;4.85;85.53;100610.09;5075210;28;20965;-66
2024/03/09 08:05:44;;;;;;;8.60;5.57;;;;;;;4.84;84.39;100603.94;5075465;28;20437;-68
2024/03/09 08:08:13;;;;;;;16.43;7.57;;;;;;;4.92;85.13;100616.06;5075485;28;20429;-72
2024/03/09 08:10:41;;;;;;;8.53;4.60;;;;;;;4.95;84.44;100604.75;5075430;28;20445;-69
2024/03/09 08:13:10;;;;;;;13.30;6.27;;;;;;;5.04;83.81;100605.88;5075028;28;20465;-70
2024/03/09 08:15:37;;;;;;;5.70;4.87;;;;;;;5.03;83.89;100601.56;5075630;28;20445;-69
2024/03/09 08:18:07;;;;;;;11.63;5.63;;;;;;;5.04;84.46;100603.19;5075446;28;20512;-72
2024/03/09 08:20:34;;;;;;;8.57;4.20;;;;;;;5.12;84.34;100570.47;5075745;28;20437;-70
2024/03/09 08:23:01;;;;;;;22.13;6.67;;;;;;;5.28;83.85;100584.75;5075189;28;20488;-70
2024/03/09 08:25:29;;;;;;;12.40;7.67;;;;;;;5.34;82.53;100586.34;5074971;28;20969;-71
2024/03/09 08:27:56;;;;;;;10.53;5.07;;;;;;;5.41;83.12;100580.75;5075172;28;20528;-67
2024/03/09 08:30:23;;;;;;;16.57;6.30;;;;;;;5.50;82.89;100577.25;5075019;28;20524;-66
2024/03/09 08:32:53;;;;;;;12.97;7.27;;;;;;;5.62;82.70;100576.97;5075263;28;20465;-67
2024/03/09 08:35:21;;;;;;;10.70;6.10;;;;;;;5.73;82.42;100570.53;5075033;28;20450;-65
2024/03/09 08:37:50;;;;;;;15.43;6.23;;;;;;;5.81;81.56;100558.44;5074814;28;20440;-65
2024/03/09 08:40:19;;;;;;;11.80;6.00;;;;;;;5.89;81.50;100555.22;5074896;28;20955;-65
2024/03/09 08:42:48;;;;;;;14.13;8.43;;;;;;;6.04;80.54;100551.72;5074747;28;20533;-66
2024/03/09 08:45:15;;;;;;;12.73;6.57;;;;;;;6.10;80.08;100547.16;5074820;28;20441;-67
2024/03/09 08:47:42;;;;;;;18.00;6.60;;;;;;;6.17;79.44;100540.41;5074451;28;20434;-67
2024/03/09 08:50:11;;;;;;;15.63;5.07;;;;;;;6.19;79.19;100532.06;5074621;28;20445;-67
2024/03/09 08:52:38;;;;;;;7.60;4.70;;;;;;;6.27;79.02;100542.25;5074975;28;20485;-67
2024/03/09 08:55:09;;;;;;;16.37;4.93;;;;;;;6.40;78.94;100538.19;5074913;28;20441;-67
2024/03/09 08:57:36;;;;;;;17.80;6.67;;;;;;;6.50;77.54;100536.25;5074553;28;20422;-67
2024/03/09 09:00:05;;;;;;;18.93;6.83;;;;;;;6.57;77.01;100530.59;5074764;28;20559;-67
2024/03/09 09:02:32;;;;;;;14.70;6.43;;;;;;;6.64;76.28;100533.81;5074718;28;20544;-67
2024/03/09 09:04:59;;;;;;;13.67;6.57;;;;;;;6.69;76.45;100531.09;5074381;28;20426;-67
2024/03/09 09:07:26;;;;;;;11.60;6.60;;;;;;;6.74;76.05;100533.75;5074012;28;20808;-67
2024/03/09 09:09:52;;;;;;;22.07;7.00;;;;;;;6.78;75.54;100524.06;5074283;28;20441;-67
2024/03/09 09:12:19;;;;;;;10.53;5.50;;;;;;;6.88;75.91;100530.47;5074119;28;20460;-67
2024/03/09 09:14:46;;;;;;;13.10;5.97;;;;;;;6.92;75.40;100523.44;5074491;28;20537;-67
2024/03/09 09:17:14;;;;;;;19.67;4.97;;;;;;;7.02;74.89;100513.41;5073841;28;20440;-67
2024/03/09 09:19:40;;;;;;;20.90;7.60;;;;;;;7.08;75.43;100515.00;5074054;28;20584;-67
2024/03/09 09:22:08;;;;;;;12.43;6.40;;;;;;;7.16;74.42;100518.16;5074048;28;20466;-69
2024/03/09 09:24:36;;;;;;;19.00;7.43;;;;;;;7.27;74.88;100512.44;5073164;28;20968;-69
2024/03/09 09:27:02;;;;;;;15.30;6.87;;;;;;;7.43;74.34;100507.72;5073974;28;20445;-67
2024/03/09 09:29:29;;;;;;;18.50;6.97;;;;;;;7.52;72.69;100510.63;5073611;28;20964;-67
2024/03/09 09:31:56;;;;;;;11.73;5.13;;;;;;;7.57;72.36;100503.31;5074405;28;20444;-67
2024/03/09 09:34:24;;;;;;;18.07;5.60;;;;;;;7.70;72.75;100501.03;5073901;28;20444;-67
2024/03/09 09:36:52;;;;;;;12.77;5.50;;;;;;;7.71;71.23;100503.47;5073543;28;20944;-67
2024/03/09 09:39:20;;;;;;;16.03;7.00;;;;;;;7.77;71.33;100498.81;5073648;28;20485;-67
2024/03/09 09:41:49;;;;;;;14.80;6.27;;;;;;;7.87;71.31;100501.41;5073688;28;20536;-67
2024/03/09 09:44:17;;;;;;;16.70;7.30;;;;;;;7.99;71.84;100493.75;5073414;28;20991;-67
2024/03/09 09:46:44;;;;;;;15.27;7.50;;;;;;;8.13;71.10;100491.16;5073750;28;20952;-70
2024/03/09 09:49:11;;;;;;;10.93;6.43;;;;;;;8.18;70.96;100484.91;5074037;28;20798;-67
2024/03/09 09:51:41;;;;;;;13.90;5.83;;;;;;;8.32;70.73;100483.09;5073916;28;20441;-67
2024/03/09 09:54:09;;;;;;;16.33;7.33;;;;;;;8.38;69.93;100475.81;5073658;28;20533;-69
2024/03/09 09:56:36;;;;;;;13.87;6.53;;;;;;;8.46;69.71;100478.66;5073675;28;20456;-70
2024/03/09 09:59:02;;;;;;;24.17;6.07;;;;;;;8.57;68.69;100476.63;5073333;28;20800;-68
2024/03/09 10:01:31;;;;;;;11.53;6.50;;;;;;;8.64;68.71;100460.88;5073495;28;20516;-68
2024/03/09 10:03:57;;;;;;;10.43;6.33;;;;;;;8.74;67.50;100466.13;5073263;28;20972;-68
2024/03/09 10:06:24;;;;;;;14.30;6.60;;;;;;;8.81;67.07;100463.88;5073433;28;20448;-68
2024/03/09 10:08:54;;;;;;;21.10;7.97;;;;;;;8.87;66.72;100464.59;5073152;28;20937;-68
2024/03/09 10:11:22;;;;;;;10.40;5.10;;;;;;;8.88;66.38;100463.50;5073457;28;20861;-67
2024/03/09 10:13:49;;;;;;;13.40;7.40;;;;;;;8.90;67.23;100458.63;5073108;28;20945;-68
2024/03/09 10:16:17;;;;;;;12.10;5.97;;;;;;;8.98;66.13;100457.94;5073578;28;20480;-68
2024/03/09 10:18:46;;;;;;;24.80;8.63;;;;;;;9.08;66.60;100459.72;5073171;28;20477;-68
2024/03/09 10:21:14;;;;;;;27.20;8.60;;;;;;;9.20;66.02;100454.63;5073361;28;20437;-68
2024/03/09 10:23:42;;;;;;;17.90;6.93;;;;;;;9.37;66.26;100453.28;5072786;28;20480;-68
2024/03/09 10:26:10;;;;;;;19.70;7.03;;;;;;;9.51;65.10;100456.84;5073482;28;20448;-68
2024/03/09 10:28:37;;;;;;;13.73;7.00;;;;;;;9.61;64.71;100451.28;5073312;28;20456;-68
2024/03/09 10:31:05;;;;;;;18.03;8.23;;;;;;;9.71;64.10;100456.50;5073558;28;20520;-68
2024/03/09 10:33:34;;;;;;;20.70;8.50;;;;;;;9.91;63.99;100452.59;5072858;28;20464;-68
2024/03/09 10:36:01;;;;;;;21.70;7.83;;;;;;;10.08;62.72;100446.59;5074382;28;20937;-68
2024/03/09 10:38:30;;;;;;;19.67;8.03;;;;;;;10.17;61.99;100446.69;5077510;28;20527;-68
2024/03/09 10:40:58;;;;;;;22.20;8.90;;;;;;;10.20;62.14;100441.47;5077495;28;20445;-68
2024/03/09 10:43:28;;;;;;;20.47;9.00;;;;;;;10.06;60.94;100437.97;5077187;28;20468;-68
2024/03/09 10:45:59;;;;;;;19.37;9.00;;;;;;;10.17;62.18;100431.25;5076814;28;21048;-68
2024/03/09 10:48:29;;;;;;;20.80;7.63;;;;;;;10.29;61.13;100431.56;5077323;28;20420;-70
2024/03/09 10:51:14;;;;;;;18.20;8.13;;;;;;;10.28;60.11;100429.97;5077040;28;20469;-68
2024/03/09 10:53:53;;;;;;;22.10;8.13;;;;;;;10.38;60.59;100428.16;5077050;28;20464;-68
2024/03/09 10:56:22;;;;;;;19.37;7.17;;;;;;;10.41;60.44;100428.34;5076915;28;20449;-68
2024/03/09 10:58:52;;;;;;;16.90;8.60;;;;;;;10.34;60.62;100415.22;5076673;28;20513;-67
2024/03/09 11:01:21;;;;;;;19.93;8.97;;;;;;;10.43;60.37;100415.31;5076708;28;20960;-68
2024/03/09 11:03:50;;;;;;;18.23;8.43;;;;;;;10.51;60.44;100409.16;5077060;28;20807;-70
2024/03/09 11:06:18;;;;;;;17.67;9.67;;;;;;;10.66;60.41;100405.31;5076427;28;20801;-70
2024/03/09 11:08:46;;;;;;;26.27;9.27;;;;;;;10.82;60.56;100398.44;5076577;28;20438;-68
2024/03/09 11:11:13;;;;;;;17.30;8.27;;;;;;;11.00;60.28;100398.56;5076529;28;20528;-67
2024/03/09 11:13:42;;;;;;;14.87;6.40;;;;;;;11.10;59.50;100390.97;5076665;28;20480;-68
2024/03/09 11:16:13;;;;;;;15.57;7.30;;;;;;;11.34;57.45;100398.00;5076848;28;20441;-68
2024/03/09 11:18:43;;;;;;;12.23;6.03;;;;;;;11.32;56.59;100394.78;5076829;28;20509;-70
2024/03/09 11:21:23;;;;;;;15.17;6.70;;;;;;;11.44;56.07;100394.22;5076753;28;20437;-70
2024/03/09 11:23:52;;;;;;;18.43;6.93;;;;;;;11.55;56.33;100388.22;5076155;28;20594;-68
2024/03/09 11:26:21;;;;;;;17.27;6.27;;;;;;;11.69;56.06;100387.31;5076476;28;20444;-68
2024/03/09 11:28:55;;;;;;;16.70;7.07;;;;;;;11.95;54.76;100393.63;5076566;28;20438;-68
2024/03/09 11:31:29;;;;;;;15.70;6.90;;;;;;;12.31;55.00;100385.28;5076284;28;20480;-70